sensor_id;sensor_type;location;lat;lon;timestamp;P1;durP1;ratioP1;P2;durP2;ratioP2
57309;SDS011;43153;50.984;18.204;2024-01-15T00:00:47;16.00;;;5.80;;
57309;SDS011;43153;50.984;18.204;2024-01-15T00:03:13;17.00;;;5.80;;
57309;SDS011;43153;50.984;18.204;2024-01-15T00:05:39;14.00;;;5.90;;
57309;SDS011;43153;50.984;18.204;2024-01-15T00:08:04;15.50;;;5.70;;
57309;SDS011;43153;50.984;18.204;2024-01-15T00:10:30;16.90;;;6.30;;
57309;SDS011;43153;50.984;18.204;2024-01-15T00:12:56;19.00;;;6.80;;
57309;SDS011;43153;50.984;18.204;2024-01-15T00:15:21;12.50;;;4.70;;
57309;SDS011;43153;50.984;18.204;2024-01-15T00:17:47;15.50;;;6.40;;
57309;SDS011;43153;50.984;18.204;2024-01-15T00:20:13;14.30;;;6.00;;
57309;SDS011;43153;50.984;18.204;2024-01-15T00:22:39;17.00;;;5.90;;
57309;SDS011;43153;50.984;18.204;2024-01-15T00:25:04;16.70;;;6.10;;
57309;SDS011;43153;50.984;18.204;2024-01-15T00:27:30;18.10;;;6.00;;
57309;SDS011;43153;50.984;18.204;2024-01-15T00:29:56;16.40;;;6.20;;
57309;SDS011;43153;50.984;18.204;2024-01-15T00:32:22;18.60;;;7.10;;
57309;SDS011;43153;50.984;18.204;2024-01-15T00:34:48;14.70;;;6.30;;
57309;SDS011;43153;50.984;18.204;2024-01-15T00:37:13;15.50;;;5.60;;
57309;SDS011;43153;50.984;18.204;2024-01-15T00:39:39;15.70;;;6.90;;
57309;SDS011;43153;50.984;18.204;2024-01-15T00:42:04;15.00;;;6.10;;
57309;SDS011;43153;50.984;18.204;2024-01-15T00:44:30;14.20;;;5.70;;
57309;SDS011;43153;50.984;18.204;2024-01-15T00:46:56;13.90;;;5.70;;
57309;SDS011;43153;50.984;18.204;2024-01-15T00:49:21;14.90;;;5.40;;
57309;SDS011;43153;50.984;18.204;2024-01-15T00:51:47;13.40;;;5.50;;
57309;SDS011;43153;50.984;18.204;2024-01-15T00:54:12;13.30;;;5.20;;
57309;SDS011;43153;50.984;18.204;2024-01-15T00:56:38;13.00;;;5.00;;
57309;SDS011;43153;50.984;18.204;2024-01-15T00:59:04;12.70;;;4.90;;
57309;SDS011;43153;50.984;18.204;2024-01-15T01:01:30;13.50;;;4.50;;
57309;SDS011;43153;50.984;18.204;2024-01-15T01:03:55;14.80;;;5.30;;
57309;SDS011;43153;50.984;18.204;2024-01-15T01:06:21;12.30;;;4.80;;
57309;SDS011;43153;50.984;18.204;2024-01-15T01:08:46;16.50;;;5.40;;
57309;SDS011;43153;50.984;18.204;2024-01-15T01:11:13;14.00;;;4.90;;
57309;SDS011;43153;50.984;18.204;2024-01-15T01:13:40;13.20;;;5.30;;
57309;SDS011;43153;50.984;18.204;2024-01-15T01:16:07;13.40;;;4.90;;
57309;SDS011;43153;50.984;18.204;2024-01-15T01:18:33;12.60;;;4.10;;
57309;SDS011;43153;50.984;18.204;2024-01-15T01:20:59;14.80;;;5.50;;
57309;SDS011;43153;50.984;18.204;2024-01-15T01:23:26;17.10;;;6.20;;
57309;SDS011;43153;50.984;18.204;2024-01-15T01:25:51;12.30;;;5.50;;
57309;SDS011;43153;50.984;18.204;2024-01-15T01:28:17;11.40;;;4.10;;
57309;SDS011;43153;50.984;18.204;2024-01-15T01:30:43;14.50;;;5.70;;
57309;SDS011;43153;50.984;18.204;2024-01-15T01:33:08;12.90;;;5.20;;
57309;SDS011;43153;50.984;18.204;2024-01-15T01:35:34;12.30;;;5.30;;
57309;SDS011;43153;50.984;18.204;2024-01-15T01:38:01;13.90;;;5.00;;
57309;SDS011;43153;50.984;18.204;2024-01-15T01:40:27;15.20;;;5.30;;
57309;SDS011;43153;50.984;18.204;2024-01-15T01:42:52;16.80;;;5.50;;
57309;SDS011;43153;50.984;18.204;2024-01-15T01:45:18;10.30;;;4.20;;
57309;SDS011;43153;50.984;18.204;2024-01-15T01:47:43;13.90;;;4.20;;
57309;SDS011;43153;50.984;18.204;2024-01-15T01:50:09;11.60;;;3.90;;
57309;SDS011;43153;50.984;18.204;2024-01-15T01:52:35;13.90;;;4.30;;
57309;SDS011;43153;50.984;18.204;2024-01-15T01:55:02;13.30;;;5.20;;
57309;SDS011;43153;50.984;18.204;2024-01-15T01:57:29;10.10;;;4.10;;
57309;SDS011;43153;50.984;18.204;2024-01-15T01:59:56;12.70;;;4.10;;
57309;SDS011;43153;50.984;18.204;2024-01-15T02:02:23;9.50;;;3.50;;
57309;SDS011;43153;50.984;18.204;2024-01-15T02:04:51;10.10;;;3.70;;
57309;SDS011;43153;50.984;18.204;2024-01-15T02:07:18;11.30;;;4.00;;
57309;SDS011;43153;50.984;18.204;2024-01-15T02:09:44;12.30;;;4.70;;
57309;SDS011;43153;50.984;18.204;2024-01-15T02:12:10;9.60;;;3.70;;
57309;SDS011;43153;50.984;18.204;2024-01-15T02:14:39;9.40;;;3.30;;
57309;SDS011;43153;50.984;18.204;2024-01-15T02:17:05;9.10;;;3.30;;
57309;SDS011;43153;50.984;18.204;2024-01-15T02:19:31;10.20;;;3.50;;
57309;SDS011;43153;50.984;18.204;2024-01-15T02:21:57;10.30;;;3.40;;
57309;SDS011;43153;50.984;18.204;2024-01-15T02:24:22;10.30;;;3.60;;
57309;SDS011;43153;50.984;18.204;2024-01-15T02:26:48;10.70;;;3.60;;
57309;SDS011;43153;50.984;18.204;2024-01-15T02:29:15;9.90;;;3.30;;
57309;SDS011;43153;50.984;18.204;2024-01-15T02:31:41;10.30;;;3.80;;
57309;SDS011;43153;50.984;18.204;2024-01-15T02:34:07;10.10;;;3.90;;
57309;SDS011;43153;50.984;18.204;2024-01-15T02:36:32;11.70;;;4.30;;
57309;SDS011;43153;50.984;18.204;2024-01-15T02:38:58;8.90;;;3.30;;
57309;SDS011;43153;50.984;18.204;2024-01-15T02:41:24;9.70;;;4.00;;
57309;SDS011;43153;50.984;18.204;2024-01-15T02:43:50;9.00;;;3.90;;
57309;SDS011;43153;50.984;18.204;2024-01-15T02:46:16;9.30;;;3.70;;
57309;SDS011;43153;50.984;18.204;2024-01-15T02:48:43;10.70;;;3.90;;
57309;SDS011;43153;50.984;18.204;2024-01-15T02:51:08;10.80;;;4.00;;
57309;SDS011;43153;50.984;18.204;2024-01-15T02:53:37;10.80;;;4.70;;
57309;SDS011;43153;50.984;18.204;2024-01-15T02:56:04;7.70;;;3.10;;
57309;SDS011;43153;50.984;18.204;2024-01-15T02:58:32;10.90;;;3.20;;
57309;SDS011;43153;50.984;18.204;2024-01-15T03:00:58;13.10;;;4.40;;
57309;SDS011;43153;50.984;18.204;2024-01-15T03:03:24;13.70;;;4.60;;
57309;SDS011;43153;50.984;18.204;2024-01-15T03:05:50;11.80;;;4.40;;
57309;SDS011;43153;50.984;18.204;2024-01-15T03:08:15;12.80;;;4.30;;
57309;SDS011;43153;50.984;18.204;2024-01-15T03:10:42;11.70;;;4.10;;
57309;SDS011;43153;50.984;18.204;2024-01-15T03:13:08;10.60;;;3.90;;
57309;SDS011;43153;50.984;18.204;2024-01-15T03:15:33;10.50;;;4.10;;
57309;SDS011;43153;50.984;18.204;2024-01-15T03:17:59;13.30;;;4.20;;
57309;SDS011;43153;50.984;18.204;2024-01-15T03:20:28;11.10;;;4.60;;
57309;SDS011;43153;50.984;18.204;2024-01-15T03:22:54;14.70;;;5.10;;
57309;SDS011;43153;50.984;18.204;2024-01-15T03:25:19;14.10;;;5.10;;
57309;SDS011;43153;50.984;18.204;2024-01-15T03:27:45;14.30;;;4.50;;
57309;SDS011;43153;50.984;18.204;2024-01-15T03:30:11;15.00;;;5.70;;
57309;SDS011;43153;50.984;18.204;2024-01-15T03:32:37;11.90;;;5.30;;
57309;SDS011;43153;50.984;18.204;2024-01-15T03:35:03;13.80;;;4.40;;
57309;SDS011;43153;50.984;18.204;2024-01-15T03:37:32;14.80;;;5.30;;
57309;SDS011;43153;50.984;18.204;2024-01-15T03:39:57;13.30;;;5.40;;
57309;SDS011;43153;50.984;18.204;2024-01-15T03:42:23;10.70;;;4.80;;
57309;SDS011;43153;50.984;18.204;2024-01-15T03:44:49;21.10;;;6.40;;
57309;SDS011;43153;50.984;18.204;2024-01-15T03:47:14;11.80;;;5.50;;
57309;SDS011;43153;50.984;18.204;2024-01-15T03:49:40;15.70;;;5.70;;
57309;SDS011;43153;50.984;18.204;2024-01-15T03:52:06;11.90;;;4.10;;
57309;SDS011;43153;50.984;18.204;2024-01-15T03:54:31;12.30;;;4.20;;
57309;SDS011;43153;50.984;18.204;2024-01-15T03:56:58;10.70;;;4.50;;
57309;SDS011;43153;50.984;18.204;2024-01-15T03:59:24;12.10;;;4.50;;
57309;SDS011;43153;50.984;18.204;2024-01-15T04:01:50;13.80;;;4.60;;
57309;SDS011;43153;50.984;18.204;2024-01-15T04:04:18;13.40;;;4.00;;
57309;SDS011;43153;50.984;18.204;2024-01-15T04:06:44;11.90;;;4.10;;
57309;SDS011;43153;50.984;18.204;2024-01-15T04:09:14;13.00;;;4.70;;
57309;SDS011;43153;50.984;18.204;2024-01-15T04:11:39;13.90;;;5.00;;
57309;SDS011;43153;50.984;18.204;2024-01-15T04:14:08;14.10;;;4.90;;
57309;SDS011;43153;50.984;18.204;2024-01-15T04:16:33;14.30;;;5.40;;
57309;SDS011;43153;50.984;18.204;2024-01-15T04:18:59;12.90;;;5.20;;
57309;SDS011;43153;50.984;18.204;2024-01-15T04:21:24;14.20;;;5.60;;
57309;SDS011;43153;50.984;18.204;2024-01-15T04:23:50;14.10;;;4.70;;
57309;SDS011;43153;50.984;18.204;2024-01-15T04:26:16;15.80;;;5.40;;
57309;SDS011;43153;50.984;18.204;2024-01-15T04:28:42;13.60;;;4.90;;
57309;SDS011;43153;50.984;18.204;2024-01-15T04:31:08;13.90;;;4.80;;
57309;SDS011;43153;50.984;18.204;2024-01-15T04:33:33;12.40;;;4.60;;
57309;SDS011;43153;50.984;18.204;2024-01-15T04:36:03;11.30;;;4.10;;
57309;SDS011;43153;50.984;18.204;2024-01-15T04:38:30;16.00;;;5.50;;
57309;SDS011;43153;50.984;18.204;2024-01-15T04:40:58;14.90;;;5.20;;
57309;SDS011;43153;50.984;18.204;2024-01-15T04:43:24;14.70;;;5.30;;
57309;SDS011;43153;50.984;18.204;2024-01-15T04:45:50;12.50;;;4.70;;
57309;SDS011;43153;50.984;18.204;2024-01-15T04:48:16;14.10;;;5.20;;
57309;SDS011;43153;50.984;18.204;2024-01-15T04:50:42;13.30;;;5.50;;
57309;SDS011;43153;50.984;18.204;2024-01-15T04:53:08;13.00;;;4.70;;
57309;SDS011;43153;50.984;18.204;2024-01-15T04:55:34;11.90;;;4.90;;
57309;SDS011;43153;50.984;18.204;2024-01-15T04:58:02;14.60;;;5.30;;
57309;SDS011;43153;50.984;18.204;2024-01-15T05:00:29;13.80;;;5.30;;
57309;SDS011;43153;50.984;18.204;2024-01-15T05:02:54;15.20;;;4.80;;
57309;SDS011;43153;50.984;18.204;2024-01-15T05:05:21;15.80;;;5.60;;
57309;SDS011;43153;50.984;18.204;2024-01-15T05:07:50;15.80;;;5.20;;
57309;SDS011;43153;50.984;18.204;2024-01-15T05:10:21;12.30;;;4.30;;
57309;SDS011;43153;50.984;18.204;2024-01-15T05:12:48;14.30;;;5.20;;
57309;SDS011;43153;50.984;18.204;2024-01-15T05:15:14;14.90;;;5.70;;
57309;SDS011;43153;50.984;18.204;2024-01-15T05:17:40;15.90;;;5.60;;
57309;SDS011;43153;50.984;18.204;2024-01-15T05:20:06;14.50;;;5.70;;
57309;SDS011;43153;50.984;18.204;2024-01-15T05:22:32;14.30;;;5.10;;
57309;SDS011;43153;50.984;18.204;2024-01-15T05:24:58;15.10;;;6.20;;
57309;SDS011;43153;50.984;18.204;2024-01-15T05:27:23;14.70;;;5.80;;
57309;SDS011;43153;50.984;18.204;2024-01-15T05:29:49;18.10;;;6.90;;
57309;SDS011;43153;50.984;18.204;2024-01-15T05:32:15;14.80;;;5.50;;
57309;SDS011;43153;50.984;18.204;2024-01-15T05:34:41;15.30;;;5.50;;
57309;SDS011;43153;50.984;18.204;2024-01-15T05:37:06;15.40;;;5.50;;
57309;SDS011;43153;50.984;18.204;2024-01-15T05:39:32;18.10;;;7.30;;
57309;SDS011;43153;50.984;18.204;2024-01-15T05:41:58;12.50;;;4.20;;
57309;SDS011;43153;50.984;18.204;2024-01-15T05:44:24;17.30;;;6.00;;
57309;SDS011;43153;50.984;18.204;2024-01-15T05:46:50;18.00;;;6.50;;
57309;SDS011;43153;50.984;18.204;2024-01-15T05:49:16;20.30;;;6.90;;
57309;SDS011;43153;50.984;18.204;2024-01-15T05:51:43;14.40;;;6.10;;
57309;SDS011;43153;50.984;18.204;2024-01-15T05:54:09;18.00;;;6.10;;
57309;SDS011;43153;50.984;18.204;2024-01-15T05:56:35;16.20;;;7.10;;
57309;SDS011;43153;50.984;18.204;2024-01-15T05:59:02;16.90;;;6.60;;
57309;SDS011;43153;50.984;18.204;2024-01-15T06:01:27;18.20;;;7.30;;
57309;SDS011;43153;50.984;18.204;2024-01-15T06:03:53;15.70;;;6.10;;
57309;SDS011;43153;50.984;18.204;2024-01-15T06:06:20;15.50;;;5.60;;
57309;SDS011;43153;50.984;18.204;2024-01-15T06:08:45;15.70;;;6.10;;
57309;SDS011;43153;50.984;18.204;2024-01-15T06:11:11;15.20;;;5.90;;
57309;SDS011;43153;50.984;18.204;2024-01-15T06:13:37;17.00;;;6.00;;
57309;SDS011;43153;50.984;18.204;2024-01-15T06:16:11;16.60;;;6.10;;
57309;SDS011;43153;50.984;18.204;2024-01-15T06:18:38;17.90;;;7.00;;
57309;SDS011;43153;50.984;18.204;2024-01-15T06:21:03;16.30;;;5.70;;
57309;SDS011;43153;50.984;18.204;2024-01-15T06:23:31;15.80;;;5.80;;
57309;SDS011;43153;50.984;18.204;2024-01-15T06:25:58;16.20;;;6.60;;
57309;SDS011;43153;50.984;18.204;2024-01-15T06:28:24;14.40;;;5.40;;
57309;SDS011;43153;50.984;18.204;2024-01-15T06:30:49;16.50;;;6.20;;
57309;SDS011;43153;50.984;18.204;2024-01-15T06:33:15;18.80;;;7.30;;
57309;SDS011;43153;50.984;18.204;2024-01-15T06:35:41;14.20;;;5.90;;
57309;SDS011;43153;50.984;18.204;2024-01-15T06:38:07;18.80;;;7.20;;
57309;SDS011;43153;50.984;18.204;2024-01-15T06:40:33;20.60;;;7.60;;
57309;SDS011;43153;50.984;18.204;2024-01-15T06:42:59;16.60;;;6.50;;
57309;SDS011;43153;50.984;18.204;2024-01-15T06:45:24;19.40;;;7.20;;
57309;SDS011;43153;50.984;18.204;2024-01-15T06:47:50;23.80;;;8.90;;
57309;SDS011;43153;50.984;18.204;2024-01-15T06:50:17;21.20;;;7.70;;
57309;SDS011;43153;50.984;18.204;2024-01-15T06:52:44;17.10;;;7.30;;
57309;SDS011;43153;50.984;18.204;2024-01-15T06:55:09;18.80;;;8.00;;
57309;SDS011;43153;50.984;18.204;2024-01-15T06:57:35;25.20;;;8.10;;
57309;SDS011;43153;50.984;18.204;2024-01-15T07:00:01;16.70;;;7.20;;
57309;SDS011;43153;50.984;18.204;2024-01-15T07:02:28;23.10;;;7.90;;
57309;SDS011;43153;50.984;18.204;2024-01-15T07:04:54;19.20;;;6.60;;
57309;SDS011;43153;50.984;18.204;2024-01-15T07:07:19;19.00;;;7.60;;
57309;SDS011;43153;50.984;18.204;2024-01-15T07:09:45;18.40;;;6.20;;
57309;SDS011;43153;50.984;18.204;2024-01-15T07:12:12;15.00;;;6.50;;
57309;SDS011;43153;50.984;18.204;2024-01-15T07:14:41;13.30;;;5.40;;
57309;SDS011;43153;50.984;18.204;2024-01-15T07:17:09;16.20;;;6.00;;
57309;SDS011;43153;50.984;18.204;2024-01-15T07:19:34;19.90;;;6.10;;
57309;SDS011;43153;50.984;18.204;2024-01-15T07:22:00;16.00;;;6.00;;
57309;SDS011;43153;50.984;18.204;2024-01-15T07:24:27;17.50;;;6.40;;
57309;SDS011;43153;50.984;18.204;2024-01-15T07:26:53;17.00;;;5.70;;
57309;SDS011;43153;50.984;18.204;2024-01-15T07:29:19;16.40;;;5.50;;
57309;SDS011;43153;50.984;18.204;2024-01-15T07:31:51;18.30;;;6.50;;
57309;SDS011;43153;50.984;18.204;2024-01-15T07:34:17;15.50;;;5.80;;
57309;SDS011;43153;50.984;18.204;2024-01-15T07:36:45;15.20;;;6.20;;
57309;SDS011;43153;50.984;18.204;2024-01-15T07:39:11;19.00;;;6.70;;
57309;SDS011;43153;50.984;18.204;2024-01-15T07:41:36;17.90;;;6.10;;
57309;SDS011;43153;50.984;18.204;2024-01-15T07:44:02;17.00;;;6.10;;
57309;SDS011;43153;50.984;18.204;2024-01-15T07:46:28;17.80;;;7.00;;
57309;SDS011;43153;50.984;18.204;2024-01-15T07:48:56;17.60;;;7.00;;
57309;SDS011;43153;50.984;18.204;2024-01-15T07:51:25;19.80;;;7.60;;
57309;SDS011;43153;50.984;18.204;2024-01-15T07:53:54;18.10;;;6.80;;
57309;SDS011;43153;50.984;18.204;2024-01-15T07:56:21;18.60;;;6.60;;
57309;SDS011;43153;50.984;18.204;2024-01-15T07:58:47;21.90;;;8.20;;
57309;SDS011;43153;50.984;18.204;2024-01-15T08:01:13;19.40;;;6.70;;
57309;SDS011;43153;50.984;18.204;2024-01-15T08:03:39;15.00;;;6.30;;
57309;SDS011;43153;50.984;18.204;2024-01-15T08:06:05;18.00;;;6.70;;
57309;SDS011;43153;50.984;18.204;2024-01-15T08:08:30;22.00;;;7.10;;
57309;SDS011;43153;50.984;18.204;2024-01-15T08:10:56;22.90;;;8.20;;
57309;SDS011;43153;50.984;18.204;2024-01-15T08:13:22;21.50;;;7.80;;
57309;SDS011;43153;50.984;18.204;2024-01-15T08:15:49;17.60;;;7.90;;
57309;SDS011;43153;50.984;18.204;2024-01-15T08:18:15;17.10;;;6.80;;
57309;SDS011;43153;50.984;18.204;2024-01-15T08:20:41;16.30;;;6.40;;
57309;SDS011;43153;50.984;18.204;2024-01-15T08:23:06;18.30;;;7.60;;
57309;SDS011;43153;50.984;18.204;2024-01-15T08:25:32;21.50;;;8.30;;
57309;SDS011;43153;50.984;18.204;2024-01-15T08:27:57;20.40;;;8.30;;
57309;SDS011;43153;50.984;18.204;2024-01-15T08:30:23;21.30;;;7.50;;
57309;SDS011;43153;50.984;18.204;2024-01-15T08:32:53;20.40;;;7.50;;
57309;SDS011;43153;50.984;18.204;2024-01-15T08:35:23;18.10;;;7.20;;
57309;SDS011;43153;50.984;18.204;2024-01-15T08:37:50;22.30;;;7.90;;
57309;SDS011;43153;50.984;18.204;2024-01-15T08:40:16;20.00;;;8.10;;
57309;SDS011;43153;50.984;18.204;2024-01-15T08:42:42;18.80;;;7.10;;
57309;SDS011;43153;50.984;18.204;2024-01-15T08:45:08;17.40;;;6.60;;
57309;SDS011;43153;50.984;18.204;2024-01-15T08:47:35;23.90;;;8.30;;
57309;SDS011;43153;50.984;18.204;2024-01-15T08:50:01;21.00;;;8.40;;
57309;SDS011;43153;50.984;18.204;2024-01-15T08:52:27;18.40;;;7.20;;
57309;SDS011;43153;50.984;18.204;2024-01-15T08:54:53;19.60;;;6.60;;
57309;SDS011;43153;50.984;18.204;2024-01-15T08:57:19;17.10;;;7.20;;
57309;SDS011;43153;50.984;18.204;2024-01-15T08:59:45;15.80;;;6.30;;
57309;SDS011;43153;50.984;18.204;2024-01-15T09:02:11;19.60;;;7.60;;
57309;SDS011;43153;50.984;18.204;2024-01-15T09:04:38;16.10;;;6.60;;
57309;SDS011;43153;50.984;18.204;2024-01-15T09:07:04;18.50;;;7.30;;
57309;SDS011;43153;50.984;18.204;2024-01-15T09:09:30;18.70;;;7.30;;
57309;SDS011;43153;50.984;18.204;2024-01-15T09:11:55;17.70;;;6.80;;
57309;SDS011;43153;50.984;18.204;2024-01-15T09:14:21;18.40;;;7.40;;
57309;SDS011;43153;50.984;18.204;2024-01-15T09:16:49;18.50;;;7.70;;
57309;SDS011;43153;50.984;18.204;2024-01-15T09:19:17;19.70;;;6.60;;
57309;SDS011;43153;50.984;18.204;2024-01-15T09:21:48;16.50;;;6.40;;
57309;SDS011;43153;50.984;18.204;2024-01-15T09:24:14;17.70;;;6.10;;
57309;SDS011;43153;50.984;18.204;2024-01-15T09:26:39;16.90;;;7.00;;
57309;SDS011;43153;50.984;18.204;2024-01-15T09:29:05;19.50;;;7.80;;
57309;SDS011;43153;50.984;18.204;2024-01-15T09:31:35;18.60;;;7.60;;
57309;SDS011;43153;50.984;18.204;2024-01-15T09:34:02;22.50;;;7.90;;
57309;SDS011;43153;50.984;18.204;2024-01-15T09:36:28;20.30;;;6.80;;
57309;SDS011;43153;50.984;18.204;2024-01-15T09:38:54;17.80;;;6.40;;
57309;SDS011;43153;50.984;18.204;2024-01-15T09:41:19;15.40;;;7.20;;
57309;SDS011;43153;50.984;18.204;2024-01-15T10:22:52;18.40;;;7.20;;
57309;SDS011;43153;50.984;18.204;2024-01-15T10:25:19;20.60;;;7.70;;
57309;SDS011;43153;50.984;18.204;2024-01-15T10:28:03;23.50;;;9.00;;
57309;SDS011;43153;50.984;18.204;2024-01-15T10:30:30;21.00;;;9.30;;
57309;SDS011;43153;50.984;18.204;2024-01-15T10:35:27;19.20;;;6.60;;
57309;SDS011;43153;50.984;18.204;2024-01-15T10:37:56;16.60;;;7.40;;
57309;SDS011;43153;50.984;18.204;2024-01-15T10:40:22;20.80;;;7.80;;
57309;SDS011;43153;50.984;18.204;2024-01-15T10:42:48;17.60;;;7.40;;
57309;SDS011;43153;50.984;18.204;2024-01-15T10:45:14;16.50;;;6.50;;
57309;SDS011;43153;50.984;18.204;2024-01-15T10:47:40;18.70;;;7.20;;
57309;SDS011;43153;50.984;18.204;2024-01-15T10:50:08;18.60;;;7.00;;
57309;SDS011;43153;50.984;18.204;2024-01-15T10:52:38;19.50;;;7.50;;
57309;SDS011;43153;50.984;18.204;2024-01-15T10:55:09;17.00;;;5.90;;
57309;SDS011;43153;50.984;18.204;2024-01-15T10:57:37;18.60;;;7.40;;
57309;SDS011;43153;50.984;18.204;2024-01-15T11:00:04;17.50;;;7.20;;
57309;SDS011;43153;50.984;18.204;2024-01-15T11:02:31;14.90;;;6.20;;
57309;SDS011;43153;50.984;18.204;2024-01-15T11:05:01;17.00;;;6.70;;
57309;SDS011;43153;50.984;18.204;2024-01-15T11:07:27;17.10;;;6.60;;
57309;SDS011;43153;50.984;18.204;2024-01-15T11:09:55;17.80;;;6.90;;
57309;SDS011;43153;50.984;18.204;2024-01-15T11:12:24;18.60;;;6.30;;
57309;SDS011;43153;50.984;18.204;2024-01-15T11:14:51;19.10;;;7.10;;
57309;SDS011;43153;50.984;18.204;2024-01-15T11:17:17;16.60;;;5.90;;
57309;SDS011;43153;50.984;18.204;2024-01-15T11:19:44;16.70;;;6.30;;
57309;SDS011;43153;50.984;18.204;2024-01-15T11:24:54;17.60;;;6.00;;
57309;SDS011;43153;50.984;18.204;2024-01-15T11:30:17;15.40;;;6.40;;
57309;SDS011;43153;50.984;18.204;2024-01-15T11:32:49;20.10;;;8.00;;
57309;SDS011;43153;50.984;18.204;2024-01-15T11:35:15;16.20;;;6.40;;
57309;SDS011;43153;50.984;18.204;2024-01-15T11:40:19;19.90;;;7.40;;
57309;SDS011;43153;50.984;18.204;2024-01-15T11:42:46;15.00;;;6.40;;
57309;SDS011;43153;50.984;18.204;2024-01-15T11:45:18;16.50;;;6.30;;
57309;SDS011;43153;50.984;18.204;2024-01-15T11:50:30;16.50;;;6.30;;
57309;SDS011;43153;50.984;18.204;2024-01-15T11:53:02;18.30;;;6.80;;
57309;SDS011;43153;50.984;18.204;2024-01-15T11:55:35;16.30;;;5.90;;
57309;SDS011;43153;50.984;18.204;2024-01-15T11:58:09;16.90;;;6.40;;
57309;SDS011;43153;50.984;18.204;2024-01-15T12:00:38;16.10;;;6.70;;
57309;SDS011;43153;50.984;18.204;2024-01-15T12:03:08;16.10;;;6.90;;
57309;SDS011;43153;50.984;18.204;2024-01-15T12:05:36;16.80;;;6.10;;
57309;SDS011;43153;50.984;18.204;2024-01-15T12:08:02;17.40;;;6.10;;
57309;SDS011;43153;50.984;18.204;2024-01-15T12:10:29;16.30;;;6.30;;
57309;SDS011;43153;50.984;18.204;2024-01-15T12:13:00;16.70;;;7.10;;
57309;SDS011;43153;50.984;18.204;2024-01-15T12:15:28;16.30;;;5.30;;
57309;SDS011;43153;50.984;18.204;2024-01-15T12:17:57;16.00;;;5.80;;
57309;SDS011;43153;50.984;18.204;2024-01-15T12:20:25;17.90;;;7.30;;
57309;SDS011;43153;50.984;18.204;2024-01-15T12:22:51;20.40;;;7.30;;
57309;SDS011;43153;50.984;18.204;2024-01-15T12:25:17;17.20;;;6.10;;
57309;SDS011;43153;50.984;18.204;2024-01-15T12:27:44;17.60;;;6.70;;
57309;SDS011;43153;50.984;18.204;2024-01-15T12:30:11;13.80;;;5.90;;
57309;SDS011;43153;50.984;18.204;2024-01-15T12:32:40;16.70;;;6.10;;
57309;SDS011;43153;50.984;18.204;2024-01-15T12:35:10;14.90;;;5.40;;
57309;SDS011;43153;50.984;18.204;2024-01-15T12:37:37;16.60;;;7.30;;
57309;SDS011;43153;50.984;18.204;2024-01-15T12:40:08;14.20;;;5.40;;
57309;SDS011;43153;50.984;18.204;2024-01-15T12:42:37;18.90;;;6.50;;
57309;SDS011;43153;50.984;18.204;2024-01-15T12:45:08;16.30;;;6.10;;
57309;SDS011;43153;50.984;18.204;2024-01-15T12:47:39;15.30;;;4.90;;
57309;SDS011;43153;50.984;18.204;2024-01-15T12:50:09;14.10;;;5.40;;
57309;SDS011;43153;50.984;18.204;2024-01-15T12:52:35;14.60;;;5.40;;
57309;SDS011;43153;50.984;18.204;2024-01-15T12:55:06;17.30;;;5.60;;
57309;SDS011;43153;50.984;18.204;2024-01-15T12:57:36;14.30;;;5.50;;
57309;SDS011;43153;50.984;18.204;2024-01-15T13:00:05;16.80;;;6.40;;
57309;SDS011;43153;50.984;18.204;2024-01-15T13:02:38;15.10;;;5.70;;
57309;SDS011;43153;50.984;18.204;2024-01-15T13:05:06;20.50;;;5.50;;
57309;SDS011;43153;50.984;18.204;2024-01-15T13:07:33;17.30;;;5.50;;
57309;SDS011;43153;50.984;18.204;2024-01-15T13:09:59;17.00;;;5.40;;
57309;SDS011;43153;50.984;18.204;2024-01-15T13:12:26;18.00;;;5.90;;
57309;SDS011;43153;50.984;18.204;2024-01-15T13:14:52;15.20;;;5.90;;
57309;SDS011;43153;50.984;18.204;2024-01-15T13:17:17;16.20;;;5.40;;
57309;SDS011;43153;50.984;18.204;2024-01-15T13:19:47;15.00;;;5.40;;
57309;SDS011;43153;50.984;18.204;2024-01-15T13:22:14;15.10;;;5.50;;
57309;SDS011;43153;50.984;18.204;2024-01-15T13:24:39;15.10;;;5.60;;
57309;SDS011;43153;50.984;18.204;2024-01-15T13:27:06;15.40;;;5.10;;
57309;SDS011;43153;50.984;18.204;2024-01-15T13:29:33;16.20;;;6.00;;
57309;SDS011;43153;50.984;18.204;2024-01-15T13:31:59;14.90;;;5.10;;
57309;SDS011;43153;50.984;18.204;2024-01-15T13:34:31;18.10;;;6.00;;
57309;SDS011;43153;50.984;18.204;2024-01-15T13:36:58;14.30;;;5.60;;
57309;SDS011;43153;50.984;18.204;2024-01-15T13:39:24;15.70;;;5.20;;
57309;SDS011;43153;50.984;18.204;2024-01-15T13:41:52;14.30;;;6.20;;
57309;SDS011;43153;50.984;18.204;2024-01-15T13:44:18;25.40;;;5.30;;
57309;SDS011;43153;50.984;18.204;2024-01-15T13:46:44;16.80;;;5.30;;
57309;SDS011;43153;50.984;18.204;2024-01-15T13:49:10;19.80;;;6.60;;
57309;SDS011;43153;50.984;18.204;2024-01-15T13:51:35;16.30;;;6.30;;
57309;SDS011;43153;50.984;18.204;2024-01-15T13:54:01;15.70;;;6.10;;
57309;SDS011;43153;50.984;18.204;2024-01-15T13:56:30;21.50;;;6.80;;
57309;SDS011;43153;50.984;18.204;2024-01-15T13:58:58;14.90;;;5.80;;
57309;SDS011;43153;50.984;18.204;2024-01-15T14:01:25;17.50;;;6.20;;
57309;SDS011;43153;50.984;18.204;2024-01-15T14:03:50;18.20;;;6.40;;
57309;SDS011;43153;50.984;18.204;2024-01-15T14:06:17;18.10;;;4.80;;
57309;SDS011;43153;50.984;18.204;2024-01-15T14:08:42;17.40;;;5.90;;
57309;SDS011;43153;50.984;18.204;2024-01-15T14:11:09;13.70;;;5.00;;
57309;SDS011;43153;50.984;18.204;2024-01-15T14:13:35;16.40;;;5.30;;
57309;SDS011;43153;50.984;18.204;2024-01-15T14:16:01;17.00;;;5.90;;
57309;SDS011;43153;50.984;18.204;2024-01-15T14:18:29;14.00;;;5.60;;
57309;SDS011;43153;50.984;18.204;2024-01-15T14:20:54;15.80;;;5.80;;
57309;SDS011;43153;50.984;18.204;2024-01-15T14:23:20;16.70;;;5.50;;
57309;SDS011;43153;50.984;18.204;2024-01-15T14:25:46;18.50;;;6.40;;
57309;SDS011;43153;50.984;18.204;2024-01-15T14:28:12;15.20;;;5.60;;
57309;SDS011;43153;50.984;18.204;2024-01-15T14:30:38;16.00;;;5.70;;
57309;SDS011;43153;50.984;18.204;2024-01-15T14:33:03;13.20;;;4.70;;
57309;SDS011;43153;50.984;18.204;2024-01-15T14:35:29;17.20;;;6.90;;
57309;SDS011;43153;50.984;18.204;2024-01-15T14:37:55;15.10;;;5.80;;
57309;SDS011;43153;50.984;18.204;2024-01-15T14:40:25;19.50;;;6.70;;
57309;SDS011;43153;50.984;18.204;2024-01-15T14:42:52;16.00;;;5.40;;
57309;SDS011;43153;50.984;18.204;2024-01-15T14:45:19;13.30;;;5.50;;
57309;SDS011;43153;50.984;18.204;2024-01-15T14:47:44;17.20;;;5.70;;
57309;SDS011;43153;50.984;18.204;2024-01-15T14:50:10;16.70;;;6.00;;
57309;SDS011;43153;50.984;18.204;2024-01-15T14:52:36;15.70;;;6.40;;
57309;SDS011;43153;50.984;18.204;2024-01-15T14:55:02;18.00;;;5.00;;
57309;SDS011;43153;50.984;18.204;2024-01-15T14:57:30;16.90;;;5.50;;
57309;SDS011;43153;50.984;18.204;2024-01-15T14:59:57;19.00;;;6.40;;
57309;SDS011;43153;50.984;18.204;2024-01-15T15:02:23;18.30;;;6.70;;
57309;SDS011;43153;50.984;18.204;2024-01-15T15:04:49;17.10;;;5.70;;
57309;SDS011;43153;50.984;18.204;2024-01-15T15:07:14;19.90;;;7.00;;
57309;SDS011;43153;50.984;18.204;2024-01-15T15:09:40;16.40;;;5.20;;